Time;durP1;ratioP1;P1;durP2;ratioP2;P2;SDS_P1;SDS_P2;PMS_P1;PMS_P2;Temp;Humidity;BMP_temperature;BMP_pressure;BME280_temperature;BME280_humidity;BME280_pressure;Samples;Min_cycle;Max_cycle;Signal;HPM_P1;HPM_P2
2022/09/25 00:01:32;;;;;;;17.57;14.20;;;;;;;11.27;79.31;96334.94;1791378;78;21021;-88
2022/09/25 00:03:58;;;;;;;19.45;14.35;;;;;;;11.26;79.23;96336.73;1797309;78;21243;-88
2022/09/25 00:06:25;;;;;;;17.82;13.75;;;;;;;11.22;79.61;96332.07;1771562;79;21442;-88
2022/09/25 00:08:51;;;;;;;16.67;14.05;;;;;;;11.21;79.76;96331.27;1766509;81;20959;-88
2022/09/25 00:11:24;;;;;;;18.23;13.78;;;;;;;11.19;79.90;96329.85;1755871;80;21496;-88
2022/09/25 00:13:50;;;;;;;16.75;13.05;;;;;;;11.16;80.24;96328.43;1763030;81;20980;-88
2022/09/25 00:16:19;;;;;;;18.42;13.72;;;;;;;11.07;80.60;96319.97;1761846;80;20979;-88
2022/09/25 00:21:30;;;;;;;15.68;10.85;;;;;;;10.91;81.14;96322.00;1784655;79;21088;-88
2022/09/25 00:24:02;;;;;;;15.10;11.35;;;;;;;10.89;81.69;96319.56;1753355;80;20960;-88
2022/09/25 00:26:29;;;;;;;13.85;9.50;;;;;;;10.87;81.80;96311.15;1749464;81;20982;-88
2022/09/25 00:28:56;;;;;;;13.45;9.95;;;;;;;10.91;82.28;96308.52;1754261;80;20997;-87
2022/09/25 00:31:23;;;;;;;11.38;9.25;;;;;;;10.95;82.46;96307.64;1757261;81;20971;-87
2022/09/25 00:33:51;;;;;;;14.43;10.30;;;;;;;10.99;82.75;96308.87;1758345;81;20975;-87
2022/09/25 00:36:18;;;;;;;14.20;10.00;;;;;;;11.00;82.54;96304.78;1760510;79;21055;-87
2022/09/25 00:38:45;;;;;;;11.12;8.85;;;;;;;10.97;82.95;96302.56;1749222;80;20961;-87
2022/09/25 00:41:10;;;;;;;13.58;10.48;;;;;;;10.97;83.30;96303.05;1775039;79;20908;-88
2022/09/25 00:43:40;;;;;;;12.50;9.88;;;;;;;10.93;83.08;96301.83;1761842;80;21383;-87
2022/09/25 00:46:34;;;;;;;13.32;9.98;;;;;;;10.91;83.07;96299.91;1762949;80;20927;-88
2022/09/25 00:49:08;;;;;;;13.93;9.55;;;;;;;10.93;83.24;96301.33;1760918;80;20995;-88
2022/09/25 00:51:47;;;;;;;13.30;10.28;;;;;;;10.95;83.58;96294.14;1763250;80;21360;-86
2022/09/25 00:54:17;;;;;;;11.80;9.28;;;;;;;10.99;83.69;96295.38;1748668;79;21053;-89
2022/09/25 00:56:44;;;;;;;11.03;9.38;;;;;;;10.99;83.69;96292.77;1761586;80;20975;-89
2022/09/25 00:59:16;;;;;;;10.20;8.75;;;;;;;11.02;83.83;96293.70;1755122;81;20979;-90
2022/09/25 01:01:42;;;;;;;15.50;11.90;;;;;;;11.00;83.87;96296.17;1775903;79;20924;-89
2022/09/25 01:04:07;;;;;;;18.57;11.88;;;;;;;10.96;83.80;96294.95;1751653;80;20967;-89
2022/09/25 01:06:34;;;;;;;11.40;8.80;;;;;;;10.92;83.92;96293.72;1786404;79;20988;-90
2022/09/25 01:09:00;;;;;;;9.28;7.58;;;;;;;10.90;84.26;96291.77;1784326;79;20952;-90
2022/09/25 01:11:25;;;;;;;9.35;6.20;;;;;;;10.92;84.61;96295.02;1784378;79;21255;-90
2022/09/25 01:13:55;;;;;;;6.55;4.60;;;;;;;10.92;84.77;96288.02;1776708;79;21059;-89
2022/09/25 01:16:50;;;;;;;4.87;4.37;;;;;;;10.92;85.25;96288.02;1772002;79;21342;-89
2022/09/25 01:19:25;;;;;;;9.70;8.20;;;;;;;10.91;85.38;96288.21;1781679;79;20926;-89
2022/09/25 01:21:55;;;;;;;14.35;9.38;;;;;;;10.89;85.11;96284.97;1784051;79;21532;-90
2022/09/25 01:24:29;;;;;;;17.05;11.88;;;;;;;10.90;85.19;96282.67;1782831;79;20939;-90
2022/09/25 01:27:33;;;;;;;15.65;10.53;;;;;;;10.85;84.89;96281.94;1737933;82;20966;-88
2022/09/25 01:30:12;;;;;;;12.18;8.93;;;;;;;10.81;85.12;96281.52;1783940;79;20936;-90
2022/09/25 01:33:10;;;;;;;8.03;5.45;;;;;;;10.78;85.18;96273.28;1772969;79;21038;-89
2022/09/25 01:35:56;;;;;;;7.10;4.55;;;;;;;10.74;85.36;96272.05;1768636;79;20983;-89
2022/09/25 01:38:35;;;;;;;5.55;4.28;;;;;;;10.72;85.72;96274.01;1778497;79;21422;-90
2022/09/25 01:41:09;;;;;;;4.97;3.70;;;;;;;10.68;85.86;96278.78;1778099;80;20999;-90
2022/09/25 01:43:41;;;;;;;6.35;3.70;;;;;;;10.67;86.02;96274.57;1785280;79;20953;-90
2022/09/25 01:46:10;;;;;;;;;;;;;;;10.68;86.16;96285.27;1768322;79;21006;-89
2022/09/25 01:48:35;;;;;;;4.95;4.20;;;;;;;10.67;86.38;96288.06;1768528;79;20079;-88
2022/09/25 01:51:05;;;;;;;14.15;7.28;;;;;;;10.61;86.35;96287.01;1778824;79;21023;-88
2022/09/25 01:53:41;;;;;;;9.60;6.12;;;;;;;10.52;86.14;96284.20;1785345;79;21040;-89
2022/09/25 01:56:15;;;;;;;7.97;5.22;;;;;;;10.54;86.81;96282.22;1785871;80;20971;-89
2022/09/25 01:58:45;;;;;;;7.37;4.62;;;;;;;10.55;87.03;96277.33;1734591;81;20995;-89
2022/09/25 02:01:21;;;;;;;4.85;4.03;;;;;;;10.56;86.95;96278.94;1744737;81;20999;-88
2022/09/25 02:03:55;;;;;;;4.60;3.45;;;;;;;10.61;87.04;96281.02;1733782;81;21030;-89
2022/09/25 02:06:21;;;;;;;3.95;3.02;;;;;;;10.64;87.63;96278.84;1773372;79;21034;-89
2022/09/25 02:08:52;;;;;;;4.47;2.83;;;;;;;10.69;87.97;96281.69;1803373;77;20940;-89
2022/09/25 02:11:18;;;;;;;3.50;2.98;;;;;;;10.74;88.04;96283.75;1807630;77;21008;-90
2022/09/25 02:13:51;;;;;;;5.75;3.17;;;;;;;10.81;88.06;96281.52;1806780;77;21074;-89
2022/09/25 02:16:24;;;;;;;4.15;3.22;;;;;;;10.82;87.97;96284.91;1804602;79;20944;-90
2022/09/25 02:21:51;;;;;;;5.83;3.00;;;;;;;10.76;88.23;96286.97;1795031;79;21472;-89
2022/09/25 02:24:55;;;;;;;4.78;2.90;;;;;;;10.73;88.53;96277.72;1771244;80;21425;-89
2022/09/25 02:27:20;;;;;;;3.27;2.27;;;;;;;10.72;88.93;96285.20;1789209;78;20956;-89
2022/09/25 02:29:46;;;;;;;5.60;4.15;;;;;;;10.79;89.37;96278.80;1811542;77;20912;-89
2022/09/25 02:32:13;;;;;;;3.35;2.95;;;;;;;10.86;89.32;96276.25;1793539;77;21055;-90
2022/09/25 02:34:38;;;;;;;4.67;2.70;;;;;;;10.89;89.25;96280.57;1810904;77;20919;-86
2022/09/25 02:37:14;;;;;;;4.47;2.98;;;;;;;10.90;89.11;96275.70;1812959;77;20964;-85
2022/09/25 02:39:40;;;;;;;3.72;2.92;;;;;;;10.88;89.17;96271.66;1794447;78;21457;-86
2022/09/25 02:42:20;;;;;;;3.45;2.80;;;;;;;10.86;89.34;96274.95;1814561;77;20981;-87
2022/09/25 02:45:14;;;;;;;2.98;2.70;;;;;;;10.87;89.26;96279.16;1785947;79;21042;-86
2022/09/25 02:48:19;;;;;;;3.37;3.05;;;;;;;10.82;89.25;96272.72;1809309;79;20980;-86
2022/09/25 02:50:57;;;;;;;4.62;3.42;;;;;;;10.83;89.17;96278.23;1792268;78;20923;-86
2022/09/25 02:53:49;;;;;;;4.75;3.72;;;;;;;10.84;88.67;96272.53;1804689;79;20935;-87
2022/09/25 02:56:36;;;;;;;4.60;2.92;;;;;;;10.83;88.96;96270.92;1801808;79;21212;-86
2022/09/25 02:59:08;;;;;;;3.83;2.98;;;;;;;10.85;89.12;96272.84;1795486;78;21364;-86
2022/09/25 03:01:37;;;;;;;6.25;3.70;;;;;;;10.86;89.53;96267.95;1809270;79;20967;-87
2022/09/25 03:04:03;;;;;;;3.80;3.50;;;;;;;10.89;89.74;96265.47;1811616;77;21009;-86
2022/09/25 03:06:29;;;;;;;4.53;3.10;;;;;;;10.90;89.60;96261.88;1798951;77;21005;-86
2022/09/25 03:08:55;;;;;;;4.80;2.80;;;;;;;10.89;89.90;96258.97;1758144;79;20912;-86
2022/09/25 03:11:22;;;;;;;4.25;2.80;;;;;;;10.93;89.97;96264.13;1800852;79;20946;-86
2022/09/25 03:13:59;;;;;;;2.47;2.27;;;;;;;10.96;90.03;96252.05;1796589;78;21346;-86
2022/09/25 03:16:47;;;;;;;4.35;2.77;;;;;;;10.99;90.15;96253.78;1793156;78;21034;-84
2022/09/25 03:19:13;;;;;;;5.00;2.90;;;;;;;10.99;90.38;96252.97;1797879;78;20916;-85
2022/09/25 03:21:38;;;;;;;3.27;2.80;;;;;;;10.97;90.05;96251.86;1771861;79;20954;-85
2022/09/25 03:24:04;;;;;;;3.98;3.02;;;;;;;11.02;90.10;96256.00;1802497;79;20946;-85
2022/09/25 03:26:30;;;;;;;9.93;5.22;;;;;;;11.04;89.98;96253.20;1776426;80;20994;-86
2022/09/25 03:28:57;;;;;;;7.65;4.72;;;;;;;11.07;89.87;96258.06;1806118;79;21022;-85
2022/09/25 03:31:23;;;;;;;5.05;3.10;;;;;;;11.10;89.86;96251.17;1802217;79;20962;-85
2022/09/25 03:33:49;;;;;;;2.92;2.60;;;;;;;11.11;89.79;96256.19;1807680;79;21024;-85
2022/09/25 03:36:20;;;;;;;7.22;2.60;;;;;;;11.09;89.77;96256.07;1812915;79;20955;-86
2022/09/25 03:38:49;;;;;;;3.27;2.90;;;;;;;11.08;89.47;96253.16;1796990;78;20997;-85
2022/09/25 03:41:20;;;;;;;3.72;2.70;;;;;;;11.08;89.69;96255.77;1771424;80;20980;-85
2022/09/25 03:43:50;;;;;;;3.00;2.52;;;;;;;11.09;89.48;96249.57;1793380;79;20931;-85
2022/09/25 03:46:14;;;;;;;5.00;2.92;;;;;;;11.10;89.42;96249.38;1790743;80;20917;-85
2022/09/25 03:48:40;;;;;;;5.87;3.33;;;;;;;11.13;89.37;96250.80;1801056;79;20947;-84
2022/09/25 03:51:07;;;;;;;3.25;2.72;;;;;;;11.17;89.36;96246.02;1812112;79;21438;-85
2022/09/25 03:53:34;;;;;;;3.98;2.58;;;;;;;11.18;88.98;96248.42;1772852;79;20983;-85
2022/09/25 03:56:03;;;;;;;3.50;2.35;;;;;;;11.24;89.03;96244.28;1790143;79;22023;-85
2022/09/25 03:58:29;;;;;;;3.37;3.05;;;;;;;11.29;88.87;96245.81;1792822;79;20930;-85
2022/09/25 04:00:56;;;;;;;5.70;3.92;;;;;;;11.31;88.45;96243.83;1792903;79;21050;-85
2022/09/25 04:03:27;;;;;;;4.50;3.70;;;;;;;11.34;88.50;96246.84;1809124;79;20927;-85
2022/09/25 04:05:54;;;;;;;4.20;3.40;;;;;;;11.32;88.56;96246.23;1773239;79;21107;-85
2022/09/25 04:08:19;;;;;;;3.70;3.00;;;;;;;11.35;88.10;96246.34;1778791;79;21003;-85
2022/09/25 04:10:46;;;;;;;3.95;3.00;;;;;;;11.39;88.13;96247.59;1774757;79;20985;-84
2022/09/25 04:13:12;;;;;;;6.03;3.20;;;;;;;11.42;87.80;96249.81;1786031;79;20977;-86
2022/09/25 04:15:40;;;;;;;3.20;2.90;;;;;;;11.46;87.72;96256.23;1785396;79;20961;-85
2022/09/25 04:18:06;;;;;;;3.95;3.05;;;;;;;11.47;86.98;96249.23;1751163;80;21326;-85
2022/09/25 04:20:31;;;;;;;3.92;3.40;;;;;;;11.50;86.31;96254.05;1788160;79;20981;-85
2022/09/25 04:22:57;;;;;;;3.33;3.00;;;;;;;11.52;86.51;96256.77;1783901;79;21033;-85
2022/09/25 04:25:26;;;;;;;3.35;2.40;;;;;;;11.55;86.45;96250.37;1784862;79;20963;-85
2022/09/25 04:27:54;;;;;;;6.17;2.85;;;;;;;11.56;86.97;96252.02;1783602;79;21058;-85
2022/09/25 04:30:21;;;;;;;4.85;3.27;;;;;;;11.59;86.45;96255.53;1772148;79;20924;-85
2022/09/25 04:35:32;;;;;;;3.85;3.00;;;;;;;11.66;85.50;96261.07;1786750;79;21351;-85
2022/09/25 04:37:57;;;;;;;4.08;3.27;;;;;;;11.71;86.32;96261.78;1785082;79;20908;-86
2022/09/25 04:40:23;;;;;;;4.17;2.92;;;;;;;11.72;85.72;96263.42;1788963;80;20952;-85
2022/09/25 04:43:01;;;;;;;3.33;2.87;;;;;;;11.73;86.17;96261.13;1773890;80;21023;-85
2022/09/25 04:45:27;;;;;;;3.95;3.52;;;;;;;11.75;85.69;96256.53;1763821;80;21011;-86
2022/09/25 04:47:58;;;;;;;3.35;3.05;;;;;;;11.77;85.85;96248.03;1740428;80;21938;-86
2022/09/25 04:50:26;;;;;;;3.98;3.30;;;;;;;11.82;85.90;96252.68;1775711;80;21091;-86
2022/09/25 04:52:52;;;;;;;3.70;3.08;;;;;;;11.81;85.68;96254.48;1776349;80;21346;-86
2022/09/25 04:55:18;;;;;;;4.20;3.80;;;;;;;11.83;85.76;96255.59;1787565;79;20928;-86
2022/09/25 04:57:44;;;;;;;4.78;3.20;;;;;;;11.83;85.58;96254.28;1787028;79;21468;-86
2022/09/25 05:00:12;;;;;;;5.03;3.17;;;;;;;11.82;85.56;96254.78;1778089;79;20928;-85
2022/09/25 05:02:38;;;;;;;4.65;3.20;;;;;;;11.82;85.54;96248.27;1767630;79;20995;-86
2022/09/25 05:05:05;;;;;;;4.05;3.12;;;;;;;11.85;85.39;96249.69;1779616;80;20967;-85
2022/09/25 05:07:31;;;;;;;5.30;3.22;;;;;;;11.88;85.98;96248.83;1775428;79;20999;-86
2022/09/25 05:09:57;;;;;;;3.80;2.75;;;;;;;11.92;86.33;96253.14;1785012;79;20971;-86
2022/09/25 05:12:23;;;;;;;3.77;3.22;;;;;;;11.93;86.90;96256.85;1775852;79;21813;-86
2022/09/25 05:14:49;;;;;;;4.90;3.25;;;;;;;11.93;87.13;96256.85;1782851;79;20963;-86
2022/09/25 05:17:14;;;;;;;3.80;2.77;;;;;;;11.91;87.23;96252.34;1776384;79;21323;-86
2022/09/25 05:19:40;;;;;;;3.17;2.87;;;;;;;11.92;87.76;96256.55;1780925;79;20964;-86
2022/09/25 05:22:06;;;;;;;3.42;2.80;;;;;;;11.92;87.97;96264.86;1779192;79;20917;-85
2022/09/25 05:24:31;;;;;;;2.95;2.65;;;;;;;11.89;88.33;96256.94;1787796;79;21307;-86
2022/09/25 05:26:58;;;;;;;3.20;2.50;;;;;;;11.86;88.47;96253.39;1770630;79;20951;-86
2022/09/25 05:29:23;;;;;;;4.50;3.70;;;;;;;11.87;88.76;96258.91;1771905;79;20955;-85
2022/09/25 05:31:49;;;;;;;4.17;2.98;;;;;;;11.87;88.87;96260.70;1769454;79;20951;-85
2022/09/25 05:34:15;;;;;;;3.83;3.00;;;;;;;11.89;89.21;96261.34;1774832;79;20935;-86
2022/09/25 05:36:41;;;;;;;4.10;2.95;;;;;;;11.88;89.51;96260.55;1788614;79;21449;-86
2022/09/25 05:39:10;;;;;;;3.20;2.75;;;;;;;11.86;89.45;96261.70;1782571;79;20928;-86
2022/09/25 05:41:36;;;;;;;3.58;2.83;;;;;;;11.86;89.80;96260.41;1787815;79;20977;-86
2022/09/25 05:44:05;;;;;;;4.62;3.00;;;;;;;11.85;89.59;96258.30;1786373;79;21370;-86
2022/09/25 05:46:29;;;;;;;3.67;3.27;;;;;;;11.87;90.16;96258.91;1768760;79;21432;-86
2022/09/25 05:48:55;;;;;;;2.70;2.40;;;;;;;11.91;90.09;96255.44;1776489;79;21039;-86
2022/09/25 05:51:21;;;;;;;3.30;2.70;;;;;;;11.95;90.40;96252.75;1763372;79;20960;-85
2022/09/25 05:53:47;;;;;;;3.37;3.08;;;;;;;11.99;90.55;96248.26;1771836;79;21439;-86
2022/09/25 05:56:14;;;;;;;3.65;2.87;;;;;;;12.05;90.60;96249.80;1770568;79;20952;-86
2022/09/25 05:58:40;;;;;;;2.65;2.42;;;;;;;12.06;90.80;96247.00;1774930;79;20940;-86
2022/09/25 06:01:06;;;;;;;5.00;3.02;;;;;;;12.10;90.89;96252.13;1765910;79;20917;-85
2022/09/25 06:03:32;;;;;;;5.10;2.95;;;;;;;12.14;91.13;96248.63;1775805;79;21055;-85
2022/09/25 06:05:58;;;;;;;2.75;2.37;;;;;;;12.17;91.14;96256.05;1768164;79;20996;-85
2022/09/25 06:08:25;;;;;;;3.42;3.08;;;;;;;12.20;91.16;96253.05;1776515;78;21034;-86
2022/09/25 06:10:55;;;;;;;2.72;2.50;;;;;;;12.23;91.19;96255.28;1781128;78;21030;-86
2022/09/25 06:13:22;;;;;;;3.00;2.80;;;;;;;12.27;91.29;96260.41;1783748;78;20958;-86
2022/09/25 06:15:51;;;;;;;4.15;3.05;;;;;;;12.28;91.39;96260.70;1797618;77;21052;-85
2022/09/25 06:18:15;;;;;;;2.87;2.65;;;;;;;12.28;91.35;96256.30;1798719;79;20916;-86
2022/09/25 06:20:41;;;;;;;3.25;2.95;;;;;;;12.31;91.53;96257.20;1794369;79;21034;-86
2022/09/25 06:23:07;;;;;;;3.85;2.70;;;;;;;12.32;91.49;96255.41;1797477;79;20947;-85
2022/09/25 06:25:35;;;;;;;3.30;2.70;;;;;;;12.32;91.72;96258.00;1796165;79;21018;-85
2022/09/25 06:28:01;;;;;;;2.70;2.50;;;;;;;12.32;91.74;96250.19;1799895;79;21025;-85
2022/09/25 06:30:33;;;;;;;5.45;2.70;;;;;;;12.35;91.97;96245.08;1802152;79;20974;-86
2022/09/25 06:32:57;;;;;;;3.77;2.75;;;;;;;12.37;92.12;96242.61;1792158;79;20952;-86
2022/09/25 06:35:23;;;;;;;4.58;3.02;;;;;;;12.45;92.44;96244.22;1802605;79;20932;-86
2022/09/25 06:37:48;;;;;;;3.52;2.17;;;;;;;12.52;92.49;96242.42;1793715;79;20932;-86
2022/09/25 06:40:14;;;;;;;3.25;2.75;;;;;;;12.54;92.54;96241.75;1797418;79;20956;-86
2022/09/25 06:42:40;;;;;;;3.20;2.05;;;;;;;12.57;92.60;96242.16;1782771;78;21071;-86
2022/09/25 06:45:10;;;;;;;2.98;2.52;;;;;;;12.62;92.79;96239.75;1796786;79;20960;-86
2022/09/25 06:47:36;;;;;;;3.30;2.33;;;;;;;12.65;92.87;96242.96;1794833;79;21005;-87
2022/09/25 06:50:02;;;;;;;3.17;1.92;;;;;;;12.70;92.99;96245.30;1797183;78;20992;-86
2022/09/25 06:52:28;;;;;;;5.35;2.37;;;;;;;12.72;92.86;96249.01;1795032;79;21422;-86
2022/09/25 06:54:53;;;;;;;3.62;2.40;;;;;;;12.74;93.29;96243.09;1799876;79;21046;-86
2022/09/25 06:57:19;;;;;;;4.40;2.50;;;;;;;12.83;93.81;96242.69;1793602;79;20935;-86
2022/09/25 06:59:45;;;;;;;3.08;2.55;;;;;;;12.89;93.39;96236.70;1800373;79;20944;-86
2022/09/25 07:04:54;;;;;;;2.95;2.33;;;;;;;12.93;93.75;96246.22;1807485;79;21432;-87
2022/09/25 07:07:23;;;;;;;4.35;2.42;;;;;;;13.01;93.64;96254.34;1778123;79;21099;-86
2022/09/25 07:09:48;;;;;;;11.33;9.80;;;;;;;13.05;93.76;96257.67;1799334;79;20962;-86
2022/09/25 07:12:16;;;;;;;13.90;11.55;;;;;;;13.05;93.10;96255.06;1804099;79;21387;-86
2022/09/25 07:14:43;;;;;;;12.80;11.35;;;;;;;13.04;92.32;96259.18;1804407;79;21312;-86
2022/09/25 07:17:09;;;;;;;13.08;11.05;;;;;;;13.05;91.90;96256.37;1806044;79;21104;-86
2022/09/25 07:19:35;;;;;;;12.03;10.48;;;;;;;13.06;91.25;96260.58;1797900;79;21345;-86
2022/09/25 07:22:00;;;;;;;13.90;12.45;;;;;;;13.03;91.35;96261.48;1793237;79;20940;-87
2022/09/25 07:24:26;;;;;;;17.40;15.18;;;;;;;13.06;92.00;96254.06;1800780;79;20933;-86
2022/09/25 07:26:52;;;;;;;13.20;10.88;;;;;;;13.12;91.77;96258.47;1792011;79;21066;-86
2022/09/25 07:29:18;;;;;;;12.73;10.65;;;;;;;13.10;91.36;96254.45;1805002;79;20914;-86
2022/09/25 07:31:44;;;;;;;13.08;11.03;;;;;;;13.07;91.60;96254.36;1806237;79;20952;-86
2022/09/25 07:34:11;;;;;;;13.38;9.88;;;;;;;13.08;91.36;96251.25;1807395;79;20988;-86
2022/09/25 07:36:41;;;;;;;13.00;9.70;;;;;;;13.16;91.83;96254.45;1801439;79;21058;-86
2022/09/25 07:39:07;;;;;;;14.33;9.93;;;;;;;13.19;91.68;96241.55;1793725;78;21354;-86
2022/09/25 07:41:33;;;;;;;5.87;5.10;;;;;;;13.21;91.75;96241.66;1796950;79;20937;-87
2022/09/25 07:43:59;;;;;;;4.83;4.40;;;;;;;13.28;92.30;96239.03;1808064;79;20924;-86
2022/09/25 07:46:25;;;;;;;4.67;2.70;;;;;;;13.30;91.85;96240.12;1806265;79;21001;-86
2022/09/25 07:48:51;;;;;;;3.12;2.52;;;;;;;13.32;92.30;96235.50;1808777;79;21306;-88
2022/09/25 07:51:20;;;;;;;3.45;2.05;;;;;;;13.35;92.74;96239.84;1809125;79;20892;-85
2022/09/25 07:53:46;;;;;;;3.27;2.50;;;;;;;13.42;92.58;96241.93;1781677;80;20966;-86
2022/09/25 07:56:12;;;;;;;3.02;2.00;;;;;;;13.45;92.41;96238.91;1809095;79;21021;-86
2022/09/25 07:58:38;;;;;;;4.05;2.70;;;;;;;13.51;92.61;96237.31;1787287;79;21021;-86
2022/09/25 08:01:06;;;;;;;3.80;2.17;;;;;;;13.55;92.50;96234.59;1785216;79;21343;-87
2022/09/25 08:03:32;;;;;;;3.20;2.55;;;;;;;13.62;93.04;96230.14;1780120;79;20945;-86
2022/09/25 08:06:00;;;;;;;2.58;2.30;;;;;;;13.68;93.01;96224.12;1784868;79;21364;-86
2022/09/25 08:08:27;;;;;;;4.75;2.58;;;;;;;13.74;92.83;96218.58;1785078;79;21424;-87
2022/09/25 08:10:57;;;;;;;2.60;2.22;;;;;;;13.81;92.72;96217.54;1783724;79;20904;-86
2022/09/25 08:13:23;;;;;;;2.90;2.60;;;;;;;13.85;92.71;96221.88;1781057;80;21030;-86
2022/09/25 08:15:49;;;;;;;7.00;5.58;;;;;;;13.84;92.91;96220.77;1778685;80;20928;-86
2022/09/25 08:18:14;;;;;;;12.43;7.97;;;;;;;13.85;92.87;96219.77;1776513;80;20917;-86
2022/09/25 08:20:40;;;;;;;15.45;12.20;;;;;;;13.88;93.42;96220.15;1784584;79;20942;-86
2022/09/25 08:23:07;;;;;;;15.18;12.95;;;;;;;13.93;93.58;96224.23;1788736;79;20950;-85
2022/09/25 08:25:33;;;;;;;15.60;12.78;;;;;;;13.94;93.62;96221.13;1788506;79;20984;-86
2022/09/25 08:27:59;;;;;;;15.20;13.60;;;;;;;13.98;93.26;96224.41;1783899;79;21036;-87
2022/09/25 08:30:24;;;;;;;18.55;16.50;;;;;;;14.05;93.50;96220.49;1788128;79;20996;-86
2022/09/25 08:32:51;;;;;;;17.92;16.02;;;;;;;14.08;92.73;96218.77;1784685;79;20940;-87
2022/09/25 08:35:17;;;;;;;18.35;16.42;;;;;;;14.12;92.41;96216.03;1806727;79;20976;-86
2022/09/25 08:37:47;;;;;;;18.48;16.60;;;;;;;14.15;91.77;96203.84;1796125;79;21007;-85
2022/09/25 08:40:25;;;;;;;21.87;19.52;;;;;;;14.22;92.40;96200.72;1785322;79;21350;-85
2022/09/25 08:42:52;;;;;;;18.45;16.48;;;;;;;14.32;91.92;96198.47;1808602;79;20990;-86
2022/09/25 08:51:07;;;;;;;17.10;15.45;;;;;;;14.34;91.65;96199.56;1781372;79;21449;-85
2022/09/25 08:53:34;;;;;;;17.80;16.00;;;;;;;14.39;91.70;96198.42;1802639;79;21047;-85
2022/09/25 08:56:16;;;;;;;17.70;15.90;;;;;;;14.46;92.33;96194.47;1809022;79;20992;-85
2022/09/25 08:58:46;;;;;;;19.67;17.15;;;;;;;14.52;91.57;96194.96;1754806;79;21036;-86
2022/09/25 09:01:28;;;;;;;18.60;15.90;;;;;;;14.62;91.36;96200.51;1801689;79;20927;-86
2022/09/25 09:04:04;;;;;;;;;;;;;;;14.65;91.41;96199.61;1769751;80;20964;-85
2022/09/25 09:06:30;;;;;;;18.73;15.48;;;;;;;14.69;90.81;96207.31;1786762;80;20092;-86
2022/09/25 09:09:16;;;;;;;17.80;15.88;;;;;;;14.65;89.61;96210.06;1784253;80;21020;-86
2022/09/25 09:11:48;;;;;;;17.35;14.45;;;;;;;14.56;89.99;96204.78;1786695;80;20949;-86
2022/09/25 09:14:17;;;;;;;16.62;14.90;;;;;;;14.56;89.75;96198.24;1803496;79;21373;-85
2022/09/25 09:16:59;;;;;;;16.75;15.03;;;;;;;14.60;89.73;96194.69;1786589;80;20954;-86
2022/09/25 09:19:25;;;;;;;17.45;15.65;;;;;;;14.66;89.99;96199.90;1773441;80;20986;-86
2022/09/25 09:22:09;;;;;;;13.80;12.37;;;;;;;14.74;90.17;96193.59;1771701;80;21300;-86
2022/09/25 09:25:01;;;;;;;14.70;13.03;;;;;;;14.75;87.96;96196.50;1771714;80;20945;-86
2022/09/25 09:28:02;;;;;;;14.87;12.68;;;;;;;14.78;89.66;96190.84;1771744;80;21017;-85
2022/09/25 09:30:36;;;;;;;12.00;10.80;;;;;;;14.87;90.29;96198.73;1771363;80;21364;-85
2022/09/25 09:33:34;;;;;;;13.72;11.88;;;;;;;14.93;89.10;96199.19;1778893;80;21333;-86
2022/09/25 09:36:20;;;;;;;15.38;11.35;;;;;;;14.99;89.26;96197.55;1802855;79;20939;-86
2022/09/25 09:39:09;;;;;;;11.78;10.28;;;;;;;15.04;88.95;96191.67;1802735;80;20983;-86
2022/09/25 09:41:55;;;;;;;13.32;11.53;;;;;;;15.10;88.74;96184.26;1773970;80;21329;-86
2022/09/25 09:44:51;;;;;;;11.22;9.83;;;;;;;15.16;89.35;96182.11;1803079;80;20923;-86
2022/09/25 09:47:42;;;;;;;13.03;11.03;;;;;;;15.17;89.27;96183.20;1731750;80;20948;-86
2022/09/25 09:50:26;;;;;;;12.95;10.98;;;;;;;15.22;89.00;96182.55;1773378;80;20997;-85
2022/09/25 09:52:57;;;;;;;11.70;9.78;;;;;;;15.25;88.55;96182.91;1786695;80;21005;-86
2022/09/25 09:55:43;;;;;;;14.23;10.33;;;;;;;15.33;88.86;96184.98;1804023;79;20979;-86
2022/09/25 09:58:32;;;;;;;12.18;10.23;;;;;;;15.37;88.82;96181.70;1778077;80;21002;-87
2022/09/25 10:00:58;;;;;;;11.95;10.78;;;;;;;15.36;89.01;96180.61;1757025;79;21394;-86
2022/09/25 10:03:29;;;;;;;11.50;10.28;;;;;;;15.31;88.16;96183.89;1776305;80;21038;-85
2022/09/25 10:06:01;;;;;;;13.22;11.10;;;;;;;15.29;87.63;96181.97;1794851;79;20992;-86
2022/09/25 10:08:28;;;;;;;13.68;10.53;;;;;;;15.20;87.63;96185.89;1815939;79;21047;-87
2022/09/25 10:10:57;;;;;;;20.05;12.28;;;;;;;15.12;86.66;96187.46;1795299;79;20948;-86
2022/09/25 10:13:32;;;;;;;14.03;11.12;;;;;;;15.08;87.41;96176.63;1798558;79;21006;-86
2022/09/25 10:16:10;;;;;;;13.60;11.12;;;;;;;15.10;87.72;96179.83;1793188;79;21318;-86
2022/09/25 10:19:03;;;;;;;12.63;9.63;;;;;;;15.15;88.53;96176.08;1766598;81;20944;-87
2022/09/25 10:21:48;;;;;;;12.78;10.03;;;;;;;15.15;84.89;96181.82;1788217;80;21003;-85
2022/09/25 10:24:54;;;;;;;11.78;10.20;;;;;;;15.09;85.59;96181.35;1766977;80;21010;-85
2022/09/25 10:27:32;;;;;;;14.83;11.48;;;;;;;15.14;87.04;96181.53;1794635;80;20928;-85
2022/09/25 10:30:12;;;;;;;13.50;10.63;;;;;;;15.10;84.69;96180.33;1784912;80;20988;-86
2022/09/25 10:32:58;;;;;;;16.48;13.70;;;;;;;15.03;84.60;96179.60;1767773;80;21077;-85
2022/09/25 10:35:31;;;;;;;17.48;15.23;;;;;;;14.98;85.65;96177.13;1788344;80;20991;-85
2022/09/25 10:37:59;;;;;;;14.45;12.33;;;;;;;14.98;85.32;96176.33;1787835;80;22009;-85
2022/09/25 10:40:30;;;;;;;17.00;14.73;;;;;;;15.06;86.56;96173.94;1766135;80;20943;-84
2022/09/25 10:43:19;;;;;;;16.27;14.53;;;;;;;15.10;86.16;96178.52;1788101;79;20990;-86
2022/09/25 10:45:48;;;;;;;17.67;14.10;;;;;;;15.18;85.99;96177.46;1738190;81;21047;-86
2022/09/25 10:51:17;;;;;;;13.45;11.83;;;;;;;15.18;85.80;96173.53;1771087;80;20955;-85
2022/09/25 10:53:44;;;;;;;12.70;11.05;;;;;;;15.19;85.49;96167.28;1781153;80;20931;-85
2022/09/25 10:56:21;;;;;;;12.10;10.68;;;;;;;15.21;85.21;96169.17;1788079;80;21369;-85
2022/09/25 10:58:56;;;;;;;14.03;12.18;;;;;;;15.26;84.96;96167.50;1787512;80;21310;-85
2022/09/25 11:01:38;;;;;;;13.48;11.97;;;;;;;15.22;85.43;96169.46;1808845;79;21357;-85
2022/09/25 11:04:19;;;;;;;12.30;10.90;;;;;;;15.17;86.20;96171.94;1813024;79;20948;-85
2022/09/25 11:06:51;;;;;;;13.50;10.35;;;;;;;15.05;85.14;96171.03;1812538;79;20924;-85
2022/09/25 11:09:20;;;;;;;12.15;10.43;;;;;;;15.07;85.90;96171.61;1786374;78;21047;-85
2022/09/25 11:11:48;;;;;;;11.50;10.18;;;;;;;15.14;86.63;96166.63;1771832;80;20952;-85
2022/09/25 11:14:31;;;;;;;12.73;10.48;;;;;;;15.25;87.38;96167.20;1772107;80;21363;-86
2022/09/25 11:16:58;;;;;;;13.68;11.75;;;;;;;15.29;86.62;96174.11;1749050;81;20889;-85
2022/09/25 11:19:38;;;;;;;12.53;11.22;;;;;;;15.16;86.00;96169.83;1772406;80;21011;-85
2022/09/25 11:22:24;;;;;;;15.00;12.40;;;;;;;15.16;86.33;96165.90;1786326;80;21357;-85
2022/09/25 11:25:27;;;;;;;13.68;11.15;;;;;;;15.19;85.96;96168.08;1768366;81;20994;-85
2022/09/25 11:28:03;;;;;;;13.55;11.25;;;;;;;15.23;86.63;96160.59;1772768;80;20976;-87
2022/09/25 11:30:39;;;;;;;13.08;10.65;;;;;;;15.20;86.57;96152.67;1786427;80;21295;-87
2022/09/25 11:33:20;;;;;;;15.40;12.15;;;;;;;15.25;87.17;96154.13;1786430;80;21012;-87
2022/09/25 11:35:57;;;;;;;15.10;13.40;;;;;;;15.29;86.89;96149.25;1786398;80;20929;-86
2022/09/25 11:41:50;;;;;;;16.67;13.80;;;;;;;15.19;85.59;96156.30;1778941;80;20980;-87
2022/09/25 11:44:53;;;;;;;13.45;11.45;;;;;;;15.10;85.51;96158.09;1786615;80;21382;-87
2022/09/25 11:47:39;;;;;;;15.90;12.78;;;;;;;15.09;85.68;96157.80;1786180;80;20937;-87
2022/09/25 11:50:14;;;;;;;15.45;13.30;;;;;;;15.12;86.52;96153.44;1781142;80;20952;-87
2022/09/25 11:53:21;;;;;;;13.93;12.30;;;;;;;15.09;86.32;96143.41;1765946;80;20944;-86
2022/09/25 11:56:20;;;;;;;15.13;13.25;;;;;;;15.10;86.65;96131.41;1786465;80;20952;-86
2022/09/25 11:59:29;;;;;;;15.00;13.32;;;;;;;15.12;86.32;96129.37;1786383;80;20977;-86
2022/09/25 12:02:10;;;;;;;16.77;15.08;;;;;;;15.17;86.20;96123.52;1786445;80;20936;-86
2022/09/25 12:04:50;;;;;;;13.43;11.00;;;;;;;15.25;85.96;96105.70;1786417;80;20972;-87
2022/09/25 12:07:22;;;;;;;14.78;12.80;;;;;;;15.33;86.75;96094.16;1784881;80;20941;-87
2022/09/25 12:10:19;;;;;;;16.10;13.50;;;;;;;15.37;85.68;96103.67;1800681;79;21050;-85
2022/09/25 12:13:26;;;;;;;15.45;13.28;;;;;;;15.38;85.35;96110.00;1802890;79;21039;-86